createdAt,value
2019-04-10T00:00:52.999Z,23.13
2019-04-10T00:03:56.754Z,22.97
2019-04-10T00:07:10.452Z,22.77
2019-04-10T00:10:06.394Z,22.80
2019-04-10T00:13:10.095Z,23.07
2019-04-10T00:16:13.940Z,23.17
2019-04-10T00:19:18.271Z,22.63
2019-04-10T00:22:22.265Z,22.47
2019-04-10T00:25:26.553Z,22.80
2019-04-10T00:28:30.046Z,23.13
2019-04-10T00:31:33.875Z,23.47
2019-04-10T00:34:37.915Z,24.03
2019-04-10T00:37:42.840Z,23.40
2019-04-10T00:40:46.350Z,22.50
2019-04-10T00:43:50.965Z,22.47
2019-04-10T00:46:54.813Z,22.87
2019-04-10T00:49:58.398Z,24.33
2019-04-10T00:53:02.910Z,22.83
2019-04-10T00:56:06.494Z,22.60
2019-04-10T00:59:10.286Z,23.73
2019-04-10T01:02:13.914Z,23.03
2019-04-10T01:05:17.437Z,22.77
2019-04-10T01:08:20.943Z,24.77
2019-04-10T01:11:25.219Z,23.33
2019-04-10T01:14:29.652Z,23.43
2019-04-10T01:17:33.352Z,22.80
2019-04-10T01:20:37.762Z,22.37
2019-04-10T01:23:41.460Z,22.43
2019-04-10T01:26:45.515Z,22.87
2019-04-10T01:29:49.596Z,22.67
2019-04-10T01:32:54.346Z,22.33
2019-04-10T01:35:58.462Z,20.67
2019-04-10T01:39:02.218Z,22.97
2019-04-10T01:42:06.183Z,21.87
2019-04-10T01:45:09.805Z,20.80
2019-04-10T01:48:13.328Z,21.50
2019-04-10T01:51:17.195Z,21.37
2019-04-10T01:54:20.701Z,22.03
2019-04-10T01:57:24.225Z,21.77
2019-04-10T02:00:29.848Z,21.13
2019-04-10T02:03:34.096Z,21.77
2019-04-10T02:06:37.891Z,20.83
2019-04-10T02:09:41.483Z,22.13
2019-04-10T02:12:45.156Z,22.23
2019-04-10T02:15:48.713Z,21.23
2019-04-10T02:18:52.197Z,22.30
2019-04-10T02:21:56.107Z,22.70
2019-04-10T02:24:59.730Z,21.73
2019-04-10T02:28:03.296Z,20.27
2019-04-10T02:31:07.116Z,20.60
2019-04-10T02:34:10.723Z,20.90
2019-04-10T02:37:15.463Z,20.13
2019-04-10T02:40:21.315Z,22.00
2019-04-10T02:43:25.068Z,20.40
2019-04-10T02:46:29.287Z,20.70
2019-04-10T02:49:32.925Z,21.07
2019-04-10T02:52:37.098Z,22.60
2019-04-10T02:55:43.075Z,20.67
2019-04-10T02:58:47.152Z,20.53
2019-04-10T03:01:51.840Z,22.27
2019-04-10T03:04:57.112Z,22.40
2019-04-10T03:08:01.080Z,22.43
2019-04-10T03:11:08.615Z,23.37
2019-04-10T03:14:10.634Z,22.40
2019-04-10T03:17:14.250Z,22.90
2019-04-10T03:20:18.412Z,22.57
2019-04-10T03:23:23.180Z,21.53
2019-04-10T03:26:27.819Z,20.40
2019-04-10T03:29:31.660Z,21.87
2019-04-10T03:32:40.749Z,20.07
2019-04-10T03:35:43.738Z,20.63
2019-04-10T03:38:55.283Z,21.50
2019-04-10T03:41:52.623Z,22.17
2019-04-10T03:44:56.969Z,22.20
2019-04-10T03:48:00.460Z,23.90
2019-04-10T03:51:04.012Z,22.93
2019-04-10T03:54:07.577Z,22.53
2019-04-10T03:57:12.067Z,23.50
2019-04-10T04:00:16.186Z,24.33
2019-04-10T04:03:20.425Z,23.70
2019-04-10T04:06:24.052Z,24.40
2019-04-10T04:09:27.521Z,22.87
2019-04-10T04:12:31.075Z,24.63
2019-04-10T04:15:34.521Z,25.40
2019-04-10T04:18:38.023Z,24.43
2019-04-10T04:21:41.826Z,25.00
2019-04-10T04:24:46.134Z,24.77
2019-04-10T04:27:49.703Z,23.23
2019-04-10T04:30:53.847Z,24.33
2019-04-10T04:33:57.714Z,23.70
2019-04-10T04:37:02.354Z,24.27
2019-04-10T04:40:06.030Z,23.57
2019-04-10T04:43:09.541Z,24.23
2019-04-10T04:46:14.057Z,23.37
2019-04-10T04:49:18.187Z,23.07
2019-04-10T04:52:21.704Z,20.77
2019-04-10T04:55:26.085Z,23.23
2019-04-10T04:58:30.506Z,22.43
2019-04-10T05:01:34.062Z,22.77
2019-04-10T05:04:37.558Z,22.60
2019-04-10T05:07:41.766Z,22.70
2019-04-10T05:10:45.392Z,22.63
2019-04-10T05:13:49.079Z,22.70
2019-04-10T05:16:52.636Z,23.23
2019-04-10T05:19:56.141Z,21.37
2019-04-10T05:22:59.904Z,22.70
2019-04-10T05:26:03.516Z,22.13
2019-04-10T05:29:07.004Z,22.33
2019-04-10T05:32:11.414Z,21.67
2019-04-10T05:35:15.207Z,21.23
2019-04-10T05:38:18.820Z,20.83
2019-04-10T05:41:23.271Z,20.77
2019-04-10T05:44:38.896Z,21.07
2019-04-10T05:47:42.385Z,19.30
2019-04-10T05:50:53.845Z,18.67
2019-04-10T05:53:52.673Z,20.07
2019-04-10T05:56:56.183Z,19.17
2019-04-10T06:00:00.546Z,18.97
2019-04-10T06:03:04.161Z,16.37
2019-04-10T06:06:08.365Z,16.93
2019-04-10T06:09:12.273Z,14.97
2019-04-10T06:12:16.054Z,15.70
2019-04-10T06:15:19.653Z,15.23
2019-04-10T06:18:23.117Z,14.93
2019-04-10T06:21:27.287Z,16.37
2019-04-10T06:24:32.166Z,14.53
2019-04-10T06:27:36.751Z,15.47
2019-04-10T06:30:40.335Z,14.80
2019-04-10T06:33:44.425Z,15.07
2019-04-10T06:36:49.323Z,15.87
2019-04-10T06:40:05.121Z,14.80
2019-04-10T06:42:59.318Z,15.40
2019-04-10T06:46:04.199Z,14.53
2019-04-10T06:49:08.102Z,14.87
2019-04-10T06:52:12.707Z,14.63
2019-04-10T06:55:16.182Z,14.37
2019-04-10T06:58:20.127Z,13.60
2019-04-10T07:01:25.528Z,13.17
2019-04-10T07:04:36.239Z,14.30
2019-04-10T07:07:45.504Z,12.83
2019-04-10T07:10:49.951Z,14.00
2019-04-10T07:13:45.314Z,14.87
2019-04-10T07:16:48.862Z,11.93
2019-04-10T07:19:53.260Z,14.33
2019-04-10T07:22:58.250Z,13.43
2019-04-10T07:26:02.007Z,14.17
2019-04-10T07:29:05.774Z,14.10
2019-04-10T07:32:10.939Z,13.63
2019-04-10T07:35:18.326Z,13.20
2019-04-10T07:38:21.249Z,13.57
2019-04-10T07:41:26.395Z,13.80
2019-04-10T07:44:30.658Z,14.10
2019-04-10T07:47:35.633Z,13.63
2019-04-10T07:50:39.137Z,13.53
2019-04-10T07:53:43.572Z,14.03
2019-04-10T07:56:47.318Z,12.40
2019-04-10T07:59:50.899Z,13.30
2019-04-10T08:02:55.339Z,13.37
2019-04-10T08:05:58.954Z,14.10
2019-04-10T08:09:04.040Z,13.77
2019-04-10T08:12:07.880Z,13.50
2019-04-10T08:17:19.948Z,14.10
2019-04-10T08:20:23.999Z,13.70
2019-04-10T08:23:28.200Z,13.77
2019-04-10T08:26:32.528Z,13.23
2019-04-10T08:29:36.496Z,14.17
2019-04-10T08:32:53.377Z,14.43
2019-04-10T08:35:45.814Z,13.90
2019-04-10T08:38:50.777Z,14.20
2019-04-10T08:41:54.891Z,13.77
2019-04-10T08:44:59.235Z,14.33
2019-04-10T08:48:03.605Z,14.10
2019-04-10T08:51:08.611Z,14.53
2019-04-10T08:54:14.062Z,14.13
2019-04-10T08:57:19.275Z,14.87
2019-04-10T09:00:23.241Z,14.60
2019-04-10T09:03:27.063Z,14.37
2019-04-10T09:06:31.519Z,14.87
2019-04-10T09:09:35.336Z,15.20
2019-04-10T09:12:39.229Z,15.10
2019-04-10T09:15:43.056Z,14.27
2019-04-10T09:18:47.652Z,16.27
2019-04-10T09:21:52.010Z,15.67
2019-04-10T09:24:55.984Z,15.37
2019-04-10T09:28:00.223Z,14.93
2019-04-10T09:31:05.139Z,15.33
2019-04-10T09:34:09.659Z,15.43
2019-04-10T09:37:13.586Z,14.97
2019-04-10T09:40:18.324Z,15.63
2019-04-10T09:43:23.120Z,15.83
2019-04-10T09:46:27.019Z,15.30
2019-04-10T09:49:38.229Z,15.43
2019-04-10T09:52:36.309Z,15.40
2019-04-10T09:55:40.496Z,16.03
2019-04-10T09:58:44.797Z,16.13
2019-04-10T10:01:48.678Z,16.10
2019-04-10T10:04:53.500Z,14.80
2019-04-10T10:07:57.990Z,15.90
2019-04-10T10:11:01.926Z,14.73
2019-04-10T10:14:06.145Z,15.50
2019-04-10T10:17:10.635Z,16.23
2019-04-10T10:20:15.436Z,15.83
2019-04-10T10:23:19.995Z,15.27
2019-04-10T10:26:24.031Z,15.03
2019-04-10T10:29:28.114Z,15.40
2019-04-10T10:32:33.036Z,15.50
2019-04-10T10:35:37.018Z,15.10
2019-04-10T10:38:40.887Z,16.97
2019-04-10T10:41:44.745Z,15.30
2019-04-10T10:44:48.567Z,14.83
2019-04-10T10:47:52.655Z,14.60
2019-04-10T10:50:56.727Z,14.13
2019-04-10T10:54:02.708Z,15.00
2019-04-10T10:57:06.967Z,15.07
2019-04-10T11:00:13.314Z,14.47
2019-04-10T11:03:18.174Z,14.83
2019-04-10T11:06:22.674Z,13.60
2019-04-10T11:09:26.611Z,14.30
2019-04-10T11:12:30.517Z,14.50
2019-04-10T11:15:34.424Z,13.53
2019-04-10T11:18:38.361Z,15.43
2019-04-10T11:21:42.915Z,14.50
2019-04-10T11:24:47.128Z,14.63
2019-04-10T11:27:51.615Z,14.63
2019-04-10T11:30:56.165Z,14.63
2019-04-10T11:34:00.287Z,15.20
2019-04-10T11:37:21.550Z,14.43
2019-04-10T11:40:12.454Z,14.57
2019-04-10T11:43:16.652Z,15.27
2019-04-10T11:46:22.500Z,14.27
2019-04-10T11:49:27.699Z,13.50
2019-04-10T11:52:38.648Z,14.67
2019-04-10T11:55:45.058Z,14.10
2019-04-10T11:58:49.450Z,13.87
2019-04-10T12:01:48.953Z,14.23
2019-04-10T12:04:57.639Z,14.47
2019-04-10T12:08:27.468Z,13.90
2019-04-10T12:14:08.649Z,14.33
2019-04-10T12:17:12.474Z,14.33
2019-04-10T12:20:16.710Z,13.90
2019-04-10T12:23:20.942Z,13.37
2019-04-10T12:26:25.516Z,14.10
2019-04-10T12:29:31.251Z,13.40
2019-04-10T12:32:35.518Z,12.70
2019-04-10T12:35:40.331Z,13.57
2019-04-10T12:38:44.597Z,13.80
2019-04-10T12:41:48.495Z,13.10
2019-04-10T12:44:52.426Z,12.90
2019-04-10T12:47:56.548Z,12.33
2019-04-10T12:51:01.385Z,12.97
2019-04-10T12:54:05.644Z,12.17
2019-04-10T12:57:10.555Z,12.77
2019-04-10T13:00:18.127Z,12.50
2019-04-10T13:03:22.963Z,12.03
2019-04-10T13:06:27.122Z,12.20
2019-04-10T13:09:31.763Z,12.37
2019-04-10T13:12:35.734Z,12.63
2019-04-10T13:15:43.453Z,12.33
2019-04-10T13:18:47.559Z,12.17
2019-04-10T13:21:51.633Z,12.77
2019-04-10T13:24:55.774Z,12.53
2019-04-10T13:27:59.595Z,12.90
2019-04-10T13:31:03.613Z,12.60
2019-04-10T13:34:07.420Z,12.70
2019-04-10T13:37:12.330Z,13.43
2019-04-10T13:40:19.432Z,12.37
2019-04-10T13:43:23.695Z,12.70
2019-04-10T13:46:28.898Z,12.60
2019-04-10T13:49:33.777Z,12.77
2019-04-10T13:52:40.460Z,12.67
2019-04-10T13:55:44.468Z,12.63
2019-04-10T13:58:48.778Z,12.23
2019-04-10T14:01:52.673Z,12.97
2019-04-10T14:04:57.445Z,12.47
2019-04-10T14:08:02.110Z,11.83
2019-04-10T14:11:06.034Z,12.23
2019-04-10T14:14:10.605Z,11.93
2019-04-10T14:17:15.036Z,12.23
2019-04-10T14:20:20.377Z,12.03
2019-04-10T14:23:29.486Z,12.47
2019-04-10T14:26:52.729Z,13.33
2019-04-10T14:29:56.711Z,12.57
2019-04-10T14:33:00.847Z,12.87
2019-04-10T14:36:05.569Z,13.20
2019-04-10T14:39:16.762Z,12.73
2019-04-10T14:42:18.302Z,15.40
2019-04-10T14:45:23.522Z,13.00
2019-04-10T14:48:27.891Z,13.37
2019-04-10T14:51:32.588Z,13.23
2019-04-10T14:54:37.550Z,12.13
2019-04-10T14:57:41.792Z,13.43
2019-04-10T15:00:47.174Z,13.07
2019-04-10T15:03:51.024Z,13.10
2019-04-10T15:06:55.592Z,13.73
2019-04-10T15:09:59.600Z,14.00
2019-04-10T15:13:12.109Z,14.00
2019-04-10T15:16:09.174Z,14.03
2019-04-10T15:19:13.154Z,14.50
2019-04-10T15:22:17.821Z,14.03
2019-04-10T15:25:22.919Z,14.43
2019-04-10T15:28:27.447Z,12.73
2019-04-10T15:31:31.357Z,13.13
2019-04-10T15:34:35.425Z,13.80
2019-04-10T15:37:39.535Z,14.27
2019-04-10T15:40:44.047Z,14.70
2019-04-10T15:43:48.014Z,13.77
2019-04-10T15:46:51.855Z,13.83
2019-04-10T15:49:55.680Z,14.33
2019-04-10T15:52:59.958Z,14.43
2019-04-10T15:56:03.757Z,14.30
2019-04-10T15:59:08.102Z,13.80
2019-04-10T16:02:13.176Z,12.83
2019-04-10T16:05:17.491Z,13.97
2019-04-10T16:08:22.114Z,13.10
2019-04-10T16:11:43.848Z,15.73
2019-04-10T16:14:48.619Z,15.07
2019-04-10T16:17:54.691Z,17.20
2019-04-10T16:20:59.894Z,15.77
2019-04-10T16:24:06.642Z,14.60
2019-04-10T16:27:10.503Z,14.10
2019-04-10T16:30:17.227Z,14.23
2019-04-10T16:33:21.164Z,13.80
2019-04-10T16:36:26.330Z,14.87
2019-04-10T16:39:30.420Z,14.93
2019-04-10T16:42:34.845Z,15.07
2019-04-10T16:45:40.452Z,14.23
2019-04-10T16:48:44.415Z,14.97
2019-04-10T16:51:50.412Z,17.20
2019-04-10T16:54:55.543Z,18.90
2019-04-10T16:57:59.661Z,18.20
2019-04-10T17:01:04.350Z,17.13
2019-04-10T17:04:09.085Z,17.27
2019-04-10T17:07:13.341Z,18.00
2019-04-10T17:10:23.872Z,18.17
2019-04-10T17:13:24.603Z,19.43
2019-04-10T17:16:29.418Z,18.97
2019-04-10T17:19:45.615Z,18.80
2019-04-10T17:22:43.817Z,16.83
2019-04-10T17:25:44.537Z,16.80
2019-04-10T17:28:48.458Z,18.83
2019-04-10T17:31:52.996Z,18.53
2019-04-10T17:34:57.174Z,19.57
2019-04-10T17:38:02.330Z,17.40
2019-04-10T17:41:07.168Z,18.07
2019-04-10T17:44:11.718Z,19.17
2019-04-10T17:47:16.591Z,16.37
2019-04-10T17:50:22.372Z,16.53
2019-04-10T17:53:26.428Z,17.70
2019-04-10T17:56:30.484Z,19.23
2019-04-10T17:59:34.650Z,18.90
2019-04-10T18:02:41.001Z,18.03
2019-04-10T18:05:45.293Z,16.90
2019-04-10T18:08:49.338Z,18.00
2019-04-10T18:11:54.042Z,18.93
2019-04-10T18:14:58.184Z,18.77
2019-04-10T18:18:03.088Z,18.23
2019-04-10T18:21:07.253Z,17.50
2019-04-10T18:24:12.367Z,17.80
2019-04-10T18:27:16.405Z,18.93
2019-04-10T18:30:20.415Z,18.90
2019-04-10T18:33:24.543Z,19.90
2019-04-10T18:36:28.473Z,18.93
2019-04-10T18:39:32.588Z,18.47
2019-04-10T18:42:37.323Z,19.33
2019-04-10T18:45:53.957Z,19.50
2019-04-10T18:48:48.553Z,19.10
2019-04-10T18:51:54.312Z,19.17
2019-04-10T18:54:58.526Z,21.73
2019-04-10T18:58:03.974Z,20.83
2019-04-10T19:01:13.902Z,20.97
2019-04-10T19:04:20.446Z,19.23
2019-04-10T19:07:25.115Z,20.77
2019-04-10T19:10:29.047Z,18.80
2019-04-10T19:13:32.903Z,18.60
2019-04-10T19:16:37.413Z,19.83
2019-04-10T19:19:42.381Z,19.60
2019-04-10T19:22:48.587Z,20.87
2019-04-10T19:25:52.649Z,20.50
2019-04-10T19:28:57.131Z,20.83
2019-04-10T19:32:03.415Z,20.73
2019-04-10T19:35:08.196Z,20.50
2019-04-10T19:38:12.065Z,21.30
2019-04-10T19:41:25.231Z,21.13
2019-04-10T19:44:21.397Z,20.67
2019-04-10T19:47:26.324Z,20.40
2019-04-10T19:50:30.286Z,20.40
2019-04-10T19:53:35.274Z,20.67
2019-04-10T19:56:40.398Z,20.53
2019-04-10T19:59:44.409Z,20.60
2019-04-10T20:02:49.023Z,20.70
2019-04-10T20:05:53.456Z,22.60
2019-04-10T20:08:57.880Z,21.53
2019-04-10T20:12:02.451Z,22.27
2019-04-10T20:15:10.061Z,22.00
2019-04-10T20:18:14.686Z,21.53
2019-04-10T20:21:19.634Z,23.13
2019-04-10T20:24:23.545Z,22.23
2019-04-10T20:27:27.799Z,22.17
2019-04-10T20:30:33.155Z,20.57
2019-04-10T20:33:36.985Z,18.73
2019-04-10T20:36:41.599Z,19.77
2019-04-10T20:39:47.450Z,19.50
2019-04-10T20:42:51.406Z,18.67
2019-04-10T20:45:55.935Z,20.40
2019-04-10T20:49:00.573Z,19.87
2019-04-10T20:52:04.759Z,19.63
2019-04-10T20:55:09.128Z,19.73
2019-04-10T20:58:13.406Z,18.83
2019-04-10T21:01:17.288Z,19.17
2019-04-10T21:04:21.327Z,18.93
2019-04-10T21:07:25.563Z,17.67
2019-04-10T21:10:29.469Z,19.50
2019-04-10T21:13:34.063Z,19.20
2019-04-10T21:16:37.964Z,18.67
2019-04-10T21:19:43.076Z,18.67
2019-04-10T21:22:47.277Z,18.57
2019-04-10T21:25:51.870Z,18.33
2019-04-10T21:28:55.836Z,18.40
2019-04-10T21:32:01.377Z,19.07
2019-04-10T21:35:07.806Z,18.90
2019-04-10T21:38:11.734Z,18.50
2019-04-10T21:41:16.688Z,18.67
2019-04-10T21:44:20.675Z,18.93
2019-04-10T21:47:25.602Z,18.47
2019-04-10T21:50:29.556Z,19.87
2019-04-10T21:53:34.441Z,18.20
2019-04-10T21:56:38.905Z,19.03
2019-04-10T21:59:43.139Z,19.33
2019-04-10T22:02:48.432Z,20.10
2019-04-10T22:05:53.964Z,20.17
2019-04-10T22:09:01.920Z,19.30
2019-04-10T22:12:23.972Z,18.87
2019-04-10T22:15:20.389Z,20.43
2019-04-10T22:18:25.239Z,20.70
2019-04-10T22:21:29.212Z,19.07
2019-04-10T22:24:34.089Z,19.23
2019-04-10T22:27:37.934Z,20.53
2019-04-10T22:30:41.835Z,19.43
2019-04-10T22:33:46.589Z,19.27
2019-04-10T22:36:50.619Z,19.73
2019-04-10T22:39:54.591Z,20.07
2019-04-10T22:42:59.513Z,19.03
2019-04-10T22:46:04.616Z,19.03
2019-04-10T22:49:08.494Z,19.37
2019-04-10T22:52:12.283Z,19.27
2019-04-10T22:55:16.186Z,18.47
2019-04-10T22:58:21.109Z,18.47
2019-04-10T23:01:25.034Z,18.83
2019-04-10T23:04:28.861Z,19.30
2019-04-10T23:07:33.635Z,19.80
2019-04-10T23:10:37.459Z,19.23
2019-04-10T23:13:42.497Z,18.77
2019-04-10T23:16:46.463Z,19.40
2019-04-10T23:19:50.344Z,19.27
2019-04-10T23:22:54.824Z,20.07
2019-04-10T23:25:58.704Z,19.87
2019-04-10T23:29:02.534Z,19.57
2019-04-10T23:32:06.394Z,20.13
2019-04-10T23:35:10.289Z,19.40
2019-04-10T23:38:15.296Z,20.17
2019-04-10T23:41:19.121Z,19.53
2019-04-10T23:44:23.015Z,18.37
2019-04-10T23:47:26.839Z,18.70
2019-04-10T23:50:30.708Z,18.30
2019-04-10T23:53:34.524Z,17.27
2019-04-10T23:56:38.383Z,18.03
2019-04-10T23:59:42.637Z,17.67
